Terminal Aerodrome Forecast
Issued by NWS

Home | Current Version | Previous Version | Text Only | Print | Product List | Glossary On
Versions: 1 2 3 4 5 6 7 8 9 10 11 12 13 14 15 16 17 18 19 20 21 22 23 24 25 26 27 28 29
000
FTAK31 PANC 200318 AAA
TAFAIL
TAF AMD
PAIL 200318Z 2003/2024 28007KT P6SM -SHSN SCT025 BKN035
      TEMPO 2003/2006 3SM -SHSN BKN025
     FM200600 32006KT P6SM -SHSN BKN035
     FM201800 30005KT 3SM -SN BR SCT015 BKN025=

USA.gov is the U.S. government's official web portal to all federal, state and local government web resources and services.